Time;durP1;ratioP1;P1;durP2;ratioP2;P2;SDS_P1;SDS_P2;PMS_P1;PMS_P2;Temp;Humidity;BMP_temperature;BMP_pressure;BME280_temperature;BME280_humidity;BME280_pressure;Samples;Min_cycle;Max_cycle;Signal;HPM_P1;HPM_P2
2021/04/27 00:02:39;;;;;;;16.83;5.03;;;0.10;83.30;;;;;;4433565;28;657256;-66
2021/04/27 00:05:26;;;;;;;14.00;4.67;;;0.10;83.70;;;;;;4443738;28;656682;-65
2021/04/27 00:08:13;;;;;;;11.67;4.83;;;0.00;83.90;;;;;;4406894;28;656471;-65
2021/04/27 00:11:00;;;;;;;15.10;5.90;;;0.00;84.50;;;;;;4433648;28;656878;-65
2021/04/27 00:13:48;;;;;;;15.38;4.90;;;0.00;84.20;;;;;;4405037;28;657230;-68
2021/04/27 00:16:35;;;;;;;10.47;4.30;;;-0.10;84.20;;;;;;4434258;28;656899;-65
2021/04/27 00:19:22;;;;;;;13.70;4.90;;;-0.10;85.00;;;;;;4414590;28;657717;-67
2021/04/27 00:22:09;;;;;;;9.77;3.83;;;-0.10;85.80;;;;;;4422820;28;658107;-65
2021/04/27 00:24:56;;;;;;;11.07;3.87;;;-0.20;86.20;;;;;;4423322;28;656179;-66
2021/04/27 00:27:47;;;;;;;11.10;4.70;;;-0.30;86.20;;;;;;4404784;28;657366;-65
2021/04/27 00:30:35;;;;;;;13.40;5.23;;;-0.30;86.60;;;;;;4409399;28;658980;-66
2021/04/27 00:33:22;;;;;;;15.50;5.63;;;-0.40;87.50;;;;;;4422674;28;657609;-67
2021/04/27 00:36:09;;;;;;;16.07;5.80;;;-0.50;87.00;;;;;;4430106;28;657849;-65
2021/04/27 00:38:57;;;;;;;13.63;5.20;;;-0.60;88.00;;;;;;4430252;28;658428;-66
2021/04/27 00:41:44;;;;;;;19.57;5.10;;;-0.60;88.60;;;;;;4403842;28;659206;-66
2021/04/27 00:44:31;;;;;;;12.13;4.47;;;-0.60;88.80;;;;;;4423571;28;657782;-65
2021/04/27 00:47:19;;;;;;;13.00;4.73;;;-0.70;89.50;;;;;;4395201;28;657447;-65
2021/04/27 00:50:07;;;;;;;11.80;4.93;;;-0.80;90.10;;;;;;4434822;28;657825;-65
2021/04/27 00:52:54;;;;;;;13.40;4.93;;;-0.80;90.30;;;;;;4405723;28;658108;-66
2021/04/27 00:55:41;;;;;;;14.85;5.05;;;-0.80;90.60;;;;;;4425872;28;657953;-65
2021/04/27 00:58:28;;;;;;;15.50;4.47;;;-0.80;90.80;;;;;;4408898;28;657659;-65
2021/04/27 01:01:15;;;;;;;13.82;4.80;;;-0.80;91.00;;;;;;4430711;28;658840;-65
2021/04/27 01:04:04;;;;;;;16.70;4.87;;;-0.90;91.10;;;;;;4405810;28;657536;-67
2021/04/27 01:06:51;;;;;;;17.70;4.80;;;-0.90;91.30;;;;;;4435391;28;657704;-66
2021/04/27 01:09:40;;;;;;;11.10;4.73;;;-0.90;91.90;;;;;;4409371;28;657530;-67
2021/04/27 01:12:29;;;;;;;12.73;4.67;;;-1.00;92.60;;;;;;4419704;28;657407;-67
2021/04/27 01:15:17;;;;;;;11.40;4.40;;;-1.00;92.80;;;;;;4424160;28;657243;-66
2021/04/27 01:18:04;;;;;;;15.23;5.30;;;-1.00;93.10;;;;;;4398093;28;658410;-65
2021/04/27 01:20:53;;;;;;;15.90;5.03;;;-0.90;93.50;;;;;;4424920;28;658423;-65
2021/04/27 01:23:54;;;;;;;12.63;4.50;;;-0.90;94.00;;;;;;4408948;28;658993;-65
2021/04/27 01:26:44;;;;;;;16.07;4.60;;;-0.90;94.30;;;;;;4404413;28;657508;-65
2021/04/27 01:29:33;;;;;;;11.97;5.23;;;-0.90;94.60;;;;;;4401617;28;657597;-65
2021/04/27 01:32:20;;;;;;;12.30;4.33;;;-0.80;94.60;;;;;;4404642;28;658320;-65
2021/04/27 01:35:08;;;;;;;12.57;4.60;;;-0.80;94.70;;;;;;4425630;28;657577;-66
2021/04/27 01:37:55;;;;;;;14.30;5.13;;;-0.70;94.70;;;;;;4431058;28;658720;-66
2021/04/27 01:40:42;;;;;;;11.43;4.50;;;-0.70;94.50;;;;;;4408691;28;657332;-67
2021/04/27 01:43:30;;;;;;;10.90;4.67;;;-0.70;94.80;;;;;;4441697;28;658285;-66
2021/04/27 01:46:17;;;;;;;12.60;4.70;;;-0.70;95.00;;;;;;4411603;28;657741;-68
2021/04/27 01:49:04;;;;;;;9.30;4.00;;;-0.70;95.10;;;;;;4432058;28;657102;-67
2021/04/27 01:51:51;;;;;;;11.83;4.40;;;-0.80;95.30;;;;;;4428452;28;656414;-65
2021/04/27 01:54:38;;;;;;;14.70;4.32;;;-0.80;95.60;;;;;;4411593;28;657942;-65
2021/04/27 01:57:25;;;;;;;11.40;4.32;;;-0.70;96.20;;;;;;4430878;28;658676;-65
2021/04/27 02:00:15;;;;;;;9.70;3.87;;;-0.70;96.20;;;;;;4408462;28;657565;-67
2021/04/27 02:03:02;;;;;;;12.23;4.10;;;-0.70;96.60;;;;;;4435794;28;656718;-68
2021/04/27 02:05:49;;;;;;;9.47;4.40;;;-0.70;96.90;;;;;;4433781;28;657548;-66
2021/04/27 02:08:36;;;;;;;10.02;4.18;;;-0.70;97.30;;;;;;4437757;28;655961;-65
2021/04/27 02:11:23;;;;;;;8.93;4.40;;;-0.70;97.70;;;;;;4404788;28;658081;-65
2021/04/27 02:14:11;;;;;;;9.07;3.90;;;-0.70;98.30;;;;;;4430035;28;657386;-65
2021/04/27 02:17:03;;;;;;;10.63;4.40;;;-0.70;99.00;;;;;;4411439;28;656733;-66
2021/04/27 02:19:50;;;;;;;11.03;4.30;;;-0.70;99.30;;;;;;4416598;28;658323;-66
2021/04/27 02:22:37;;;;;;;12.60;4.07;;;-0.70;99.90;;;;;;4441208;28;657658;-67
2021/04/27 02:25:24;;;;;;;12.80;5.10;;;-0.60;99.90;;;;;;4425571;28;658225;-66
2021/04/27 02:28:12;;;;;;;10.13;4.70;;;-0.60;99.90;;;;;;4424050;28;657338;-65
2021/04/27 02:30:59;;;;;;;11.67;5.10;;;-0.60;99.90;;;;;;4408584;28;658122;-66
2021/04/27 02:33:47;;;;;;;11.63;4.60;;;-0.60;99.90;;;;;;4417168;28;658097;-66
2021/04/27 02:36:36;;;;;;;12.67;4.70;;;-0.60;99.90;;;;;;4408836;28;658142;-66
2021/04/27 02:39:23;;;;;;;11.03;4.80;;;-0.60;99.90;;;;;;4405107;28;657702;-66
2021/04/27 02:42:10;;;;;;;14.77;5.40;;;-0.60;99.90;;;;;;4427765;28;657571;-66
2021/04/27 02:44:57;;;;;;;20.40;5.63;;;-0.60;99.90;;;;;;4421227;28;657949;-67
2021/04/27 02:47:44;;;;;;;16.10;5.35;;;-0.60;99.90;;;;;;4441043;28;657468;-66
2021/04/27 02:50:33;;;;;;;13.75;5.57;;;-0.60;99.90;;;;;;4423241;28;657859;-66
2021/04/27 02:53:20;;;;;;;11.97;5.17;;;-0.60;99.90;;;;;;4396658;28;658825;-67
2021/04/27 02:56:07;;;;;;;9.73;4.33;;;-0.60;99.90;;;;;;4415748;28;657722;-68
2021/04/27 02:58:54;;;;;;;12.60;4.90;;;-0.70;99.90;;;;;;4447066;28;656526;-66
2021/04/27 03:01:41;;;;;;;10.67;5.00;;;-0.70;99.90;;;;;;4425536;28;657885;-66
2021/04/27 03:04:28;;;;;;;11.63;5.27;;;-0.70;99.90;;;;;;4387635;28;658082;-67
2021/04/27 03:07:16;;;;;;;11.70;4.80;;;-0.80;99.90;;;;;;4407838;28;658587;-66
2021/04/27 03:10:04;;;;;;;9.77;4.90;;;-0.80;99.90;;;;;;4386878;28;657690;-66
2021/04/27 03:12:51;;;;;;;12.90;5.47;;;-0.80;99.90;;;;;;4420377;28;656459;-66
2021/04/27 03:15:38;;;;;;;12.03;5.10;;;-0.90;99.90;;;;;;4386931;28;657369;-66
2021/04/27 03:18:25;;;;;;;12.83;5.23;;;-0.90;99.90;;;;;;4413180;28;658287;-66
2021/04/27 03:21:12;;;;;;;10.87;4.87;;;-0.90;99.90;;;;;;4411401;28;657569;-68
2021/04/27 03:24:00;;;;;;;18.77;5.47;;;-1.00;99.90;;;;;;4408695;28;657890;-66
2021/04/27 03:26:47;;;;;;;9.30;4.70;;;-1.00;99.90;;;;;;4412595;28;657363;-67
2021/04/27 03:29:34;;;;;;;9.32;4.78;;;-1.10;99.90;;;;;;4430269;28;657024;-66
2021/04/27 03:32:21;;;;;;;16.77;4.80;;;-1.10;99.90;;;;;;4412583;28;657418;-67
2021/04/27 03:35:10;;;;;;;10.80;4.40;;;-1.10;99.90;;;;;;4387226;28;658037;-67
2021/04/27 03:37:57;;;;;;;12.60;4.57;;;-1.00;99.90;;;;;;4413850;28;658085;-69
2021/04/27 03:40:45;;;;;;;10.75;4.82;;;-1.00;99.90;;;;;;4420921;28;657635;-66
2021/04/27 03:43:32;;;;;;;9.27;4.83;;;-1.00;99.90;;;;;;4390249;28;658084;-66
2021/04/27 03:46:19;;;;;;;9.87;4.40;;;-1.00;99.90;;;;;;4401938;28;657027;-66
2021/04/27 03:49:06;;;;;;;11.00;4.30;;;-1.00;99.90;;;;;;4411683;28;656853;-66
2021/04/27 03:51:53;;;;;;;9.57;3.90;;;-1.00;99.90;;;;;;4388685;28;657261;-66
2021/04/27 03:54:40;;;;;;;9.80;4.20;;;-1.00;99.90;;;;;;4414748;28;657885;-66
2021/04/27 03:57:28;;;;;;;8.70;3.90;;;-1.00;99.90;;;;;;4395231;28;656589;-67
2021/04/27 04:00:16;;;;;;;9.07;4.10;;;-0.90;99.90;;;;;;4418984;28;657266;-66
2021/04/27 04:03:03;;;;;;;10.47;4.70;;;-0.90;99.90;;;;;;4402427;28;656617;-66
2021/04/27 04:05:50;;;;;;;12.90;4.57;;;-0.80;99.90;;;;;;4433368;28;658617;-66
2021/04/27 04:08:37;;;;;;;11.93;4.23;;;-0.70;99.90;;;;;;4422866;28;658350;-68
2021/04/27 04:11:24;;;;;;;10.70;4.40;;;-0.70;99.90;;;;;;4446269;28;657261;-67
2021/04/27 04:14:12;;;;;;;9.60;4.20;;;-0.60;99.90;;;;;;4445187;28;658378;-67
2021/04/27 04:16:59;;;;;;;12.20;4.83;;;-0.60;99.90;;;;;;4422792;28;657792;-67
2021/04/27 04:19:47;;;;;;;9.70;4.50;;;-0.50;99.90;;;;;;4450162;28;657643;-66
2021/04/27 04:22:34;;;;;;;17.33;4.93;;;-0.40;99.90;;;;;;4428845;28;657241;-66
2021/04/27 04:25:21;;;;;;;11.67;5.03;;;-0.30;99.90;;;;;;4444512;28;657765;-66
2021/04/27 04:28:09;;;;;;;12.60;5.43;;;-0.20;99.90;;;;;;4427250;28;657996;-67
2021/04/27 04:30:57;;;;;;;16.20;5.30;;;-0.10;99.90;;;;;;4446072;28;657925;-66
2021/04/27 04:33:44;;;;;;;9.13;4.57;;;0.00;99.90;;;;;;4408215;28;657917;-66
2021/04/27 04:36:31;;;;;;;11.53;4.93;;;0.20;99.90;;;;;;4452358;28;655366;-66
2021/04/27 04:39:18;;;;;;;10.43;4.63;;;0.40;99.90;;;;;;4423895;28;656776;-66
2021/04/27 04:42:06;;;;;;;11.67;4.27;;;0.50;99.90;;;;;;4449472;28;656985;-66
2021/04/27 04:44:52;;;;;;;10.63;4.57;;;0.60;99.90;;;;;;4428004;28;656886;-67
2021/04/27 04:47:40;;;;;;;10.00;4.17;;;0.80;99.90;;;;;;4442084;28;658087;-67
2021/04/27 04:50:27;;;;;;;7.23;3.80;;;1.00;99.90;;;;;;4428167;28;656732;-67
2021/04/27 04:53:14;;;;;;;11.00;3.77;;;1.20;99.90;;;;;;4452253;28;655507;-67
2021/04/27 04:56:01;;;;;;;8.68;3.40;;;1.50;99.90;;;;;;4451191;28;657296;-67
2021/04/27 04:58:48;;;;;;;7.38;3.65;;;1.70;99.90;;;;;;4429764;28;655333;-67
2021/04/27 05:01:35;;;;;;;10.27;4.20;;;1.80;99.90;;;;;;4451725;28;656881;-67
2021/04/27 05:04:23;;;;;;;12.47;4.30;;;2.10;99.90;;;;;;4428062;28;656714;-68
2021/04/27 05:07:12;;;;;;;12.07;4.50;;;2.30;99.90;;;;;;4446075;28;657876;-66
2021/04/27 05:09:59;;;;;;;8.80;3.83;;;2.50;99.90;;;;;;4427729;28;657454;-67
2021/04/27 05:12:46;;;;;;;9.60;3.77;;;2.60;99.90;;;;;;4448193;28;655541;-66
2021/04/27 05:15:33;;;;;;;10.87;3.70;;;2.80;99.90;;;;;;4428516;28;655555;-66
2021/04/27 05:18:20;;;;;;;10.57;3.80;;;3.00;99.90;;;;;;4447064;28;657765;-68
2021/04/27 05:21:08;;;;;;;7.00;3.03;;;3.10;99.90;;;;;;4447113;28;656350;-68
2021/04/27 05:23:55;;;;;;;11.87;4.00;;;3.20;99.90;;;;;;4450943;28;657032;-68
2021/04/27 05:26:42;;;;;;;8.40;3.70;;;3.40;99.90;;;;;;4428118;28;656550;-67
2021/04/27 05:29:30;;;;;;;7.95;3.65;;;3.50;99.90;;;;;;4446394;28;655272;-68
2021/04/27 05:32:18;;;;;;;7.40;3.47;;;3.70;99.90;;;;;;4443557;28;655267;-67
2021/04/27 05:35:05;;;;;;;7.33;3.20;;;3.80;99.90;;;;;;4447994;28;656947;-67
2021/04/27 05:37:53;;;;;;;7.77;3.70;;;4.00;99.90;;;;;;4429064;28;655498;-67
2021/04/27 05:40:40;;;;;;;8.60;3.47;;;4.10;99.90;;;;;;4450743;28;656545;-67
2021/04/27 05:43:27;;;;;;;8.50;3.90;;;4.20;99.90;;;;;;4424397;28;655630;-67
2021/04/27 05:46:14;;;;;;;9.53;3.77;;;4.30;99.90;;;;;;4449591;28;655862;-67
2021/04/27 05:49:01;;;;;;;7.97;4.10;;;4.40;99.90;;;;;;4449043;28;656054;-67
2021/04/27 05:51:48;;;;;;;9.38;3.65;;;4.50;99.90;;;;;;4429989;28;655158;-67
2021/04/27 05:54:36;;;;;;;9.07;3.53;;;4.50;99.90;;;;;;4447860;28;656774;-67
2021/04/27 05:57:23;;;;;;;8.70;4.00;;;4.70;99.90;;;;;;4423058;28;655465;-67
2021/04/27 06:00:11;;;;;;;6.60;3.83;;;4.70;99.90;;;;;;4447864;28;656345;-67
2021/04/27 06:02:58;;;;;;;7.40;4.20;;;4.70;99.90;;;;;;4419686;28;655682;-69
2021/04/27 06:05:45;;;;;;;8.30;4.00;;;4.80;99.90;;;;;;4431688;28;655984;-68
2021/04/27 06:08:34;;;;;;;10.45;5.22;;;4.80;99.40;;;;;;4412529;28;655888;-67
2021/04/27 06:11:22;;;;;;;10.43;5.00;;;4.90;99.70;;;;;;4445178;28;656585;-67
2021/04/27 06:14:09;;;;;;;29.97;10.20;;;4.90;99.90;;;;;;4425066;28;657552;-67
2021/04/27 06:16:56;;;;;;;24.27;9.33;;;5.10;99.90;;;;;;4446632;28;658046;-67
2021/04/27 06:19:43;;;;;;;22.70;7.73;;;5.10;99.80;;;;;;4429139;28;657349;-67
2021/04/27 06:22:30;;;;;;;13.73;6.37;;;5.30;99.90;;;;;;4452196;28;657181;-67
2021/04/27 06:25:17;;;;;;;10.67;4.90;;;5.40;99.90;;;;;;4438203;28;656716;-68
2021/04/27 06:28:05;;;;;;;13.10;4.60;;;5.60;99.30;;;;;;4448400;28;657216;-67
2021/04/27 06:30:52;;;;;;;9.83;4.43;;;5.60;98.00;;;;;;4430284;28;656657;-67
2021/04/27 06:33:39;;;;;;;9.33;4.20;;;5.70;97.40;;;;;;4454234;28;655516;-67
2021/04/27 06:36:26;;;;;;;9.70;4.50;;;5.70;97.60;;;;;;4451573;28;655421;-68
2021/04/27 06:39:13;;;;;;;9.13;4.37;;;5.80;96.80;;;;;;4425153;28;655457;-68
2021/04/27 06:42:00;;;;;;;11.30;4.43;;;5.80;96.00;;;;;;4451715;28;657168;-68
2021/04/27 06:44:47;;;;;;;9.77;4.57;;;5.90;96.00;;;;;;4450827;28;656319;-68
2021/04/27 06:47:34;;;;;;;9.70;4.70;;;6.10;96.00;;;;;;4429743;28;656652;-68
2021/04/27 06:50:22;;;;;;;8.57;4.47;;;6.10;95.90;;;;;;4446070;28;655613;-68
2021/04/27 06:53:09;;;;;;;10.10;4.40;;;6.20;95.50;;;;;;4425829;28;655902;-67
2021/04/27 06:55:56;;;;;;;11.70;4.77;;;6.30;95.80;;;;;;4443657;28;657104;-67
2021/04/27 06:58:43;;;;;;;8.77;3.87;;;6.30;95.30;;;;;;4431579;28;656876;-68
2021/04/27 07:01:31;;;;;;;8.85;3.97;;;6.40;95.20;;;;;;4451444;28;657307;-68
2021/04/27 07:04:18;;;;;;;7.50;3.50;;;6.60;94.20;;;;;;4433482;28;655247;-67
2021/04/27 07:07:05;;;;;;;9.20;4.27;;;6.70;92.90;;;;;;4448550;28;657075;-68
2021/04/27 07:09:52;;;;;;;9.43;4.40;;;6.90;93.30;;;;;;4432151;28;655557;-68
2021/04/27 07:12:39;;;;;;;6.20;3.47;;;7.00;93.00;;;;;;4455709;28;655986;-67
2021/04/27 07:15:26;;;;;;;8.43;4.03;;;7.00;92.60;;;;;;4438138;28;655720;-68
2021/04/27 07:18:14;;;;;;;10.20;4.17;;;7.20;92.20;;;;;;4432901;28;655760;-68
2021/04/27 07:21:01;;;;;;;8.73;4.20;;;7.40;90.90;;;;;;4451250;28;656621;-69
2021/04/27 07:23:48;;;;;;;7.53;4.00;;;7.60;90.80;;;;;;4429852;28;655732;-67
2021/04/27 07:26:36;;;;;;;8.93;4.23;;;7.80;90.40;;;;;;4455852;28;656650;-68
2021/04/27 07:29:23;;;;;;;6.50;3.60;;;7.90;88.90;;;;;;4425341;28;655204;-68
2021/04/27 07:32:12;;;;;;;6.87;3.70;;;8.10;87.60;;;;;;4449936;28;656143;-68
2021/04/27 07:35:00;;;;;;;6.53;3.37;;;8.30;90.00;;;;;;4433147;28;655949;-67
2021/04/27 07:37:47;;;;;;;7.90;3.80;;;8.60;84.70;;;;;;4451714;28;655184;-67
2021/04/27 07:40:37;;;;;;;6.23;3.77;;;8.80;83.90;;;;;;4446421;28;655520;-67
2021/04/27 07:43:24;;;;;;;8.63;3.43;;;9.20;81.70;;;;;;4421486;28;657639;-68
2021/04/27 07:46:11;;;;;;;8.17;3.50;;;9.40;81.20;;;;;;4439282;28;655800;-68
2021/04/27 07:48:58;;;;;;;8.47;3.97;;;9.60;78.80;;;;;;4432072;28;655494;-68
2021/04/27 07:51:46;;;;;;;7.67;3.57;;;9.60;77.40;;;;;;4454105;28;655728;-69
2021/04/27 07:54:33;;;;;;;6.20;3.10;;;9.50;70.40;;;;;;4432931;28;655477;-69
2021/04/27 07:57:20;;;;;;;7.80;3.47;;;9.20;70.30;;;;;;4451510;28;656489;-69
2021/04/27 08:00:09;;;;;;;8.85;3.60;;;8.70;70.40;;;;;;4433589;28;656042;-68
2021/04/27 08:03:04;;;;;;;11.07;3.87;;;8.40;72.20;;;;;;4445426;28;656032;-68
2021/04/27 08:05:51;;;;;;;6.57;3.13;;;8.30;73.30;;;;;;4421549;28;656728;-68
2021/04/27 08:08:39;;;;;;;4.60;2.93;;;8.30;69.40;;;;;;4430072;28;655363;-68
2021/04/27 08:11:26;;;;;;;11.10;3.77;;;8.70;74.60;;;;;;4448287;28;656705;-69
2021/04/27 08:14:14;;;;;;;5.20;2.77;;;9.50;75.60;;;;;;4429002;28;656421;-68
2021/04/27 08:17:01;;;;;;;8.70;3.37;;;10.20;70.90;;;;;;4427848;28;655419;-68
2021/04/27 08:19:48;;;;;;;4.37;2.80;;;10.60;70.10;;;;;;4430404;28;656460;-67
2021/04/27 08:22:35;;;;;;;7.13;3.53;;;11.00;67.70;;;;;;4439671;28;657984;-68
2021/04/27 08:25:23;;;;;;;6.33;3.40;;;11.00;64.70;;;;;;4447201;28;656387;-68
2021/04/27 08:28:10;;;;;;;6.13;3.33;;;10.90;63.50;;;;;;4451467;28;657804;-69
2021/04/27 08:30:57;;;;;;;6.40;3.20;;;11.50;65.20;;;;;;4438878;28;656595;-68
2021/04/27 08:33:44;;;;;;;7.15;3.28;;;11.60;63.60;;;;;;4448098;28;656532;-68
2021/04/27 08:36:31;;;;;;;6.43;3.35;;;12.10;64.20;;;;;;4446466;28;657071;-68
2021/04/27 08:39:20;;;;;;;10.60;4.10;;;11.90;60.40;;;;;;4424002;28;656697;-68
2021/04/27 08:45:50;;;;;;;7.57;3.57;;;12.20;60.30;;;;;;4408029;28;656761;-68
2021/04/27 08:48:54;;;;;;;9.10;3.20;;;12.20;56.60;;;;;;4424990;28;656890;-69
2021/04/27 08:51:49;;;;;;;7.97;3.87;;;12.40;55.70;;;;;;4407507;28;657233;-69
2021/04/27 08:54:36;;;;;;;8.43;4.53;;;12.20;57.60;;;;;;4423546;28;656406;-69
2021/04/27 08:57:30;;;;;;;8.73;4.27;;;12.40;58.40;;;;;;4426278;28;656888;-68
2021/04/27 09:00:19;;;;;;;9.67;3.63;;;12.50;59.50;;;;;;4413871;28;656509;-69
2021/04/27 09:03:07;;;;;;;7.10;2.97;;;12.80;58.20;;;;;;4445766;28;656371;-69
2021/04/27 09:05:54;;;;;;;5.47;3.70;;;13.20;53.20;;;;;;4420702;28;658361;-68
2021/04/27 09:08:41;;;;;;;8.80;3.93;;;13.60;51.40;;;;;;4448417;28;657001;-69
2021/04/27 09:11:30;;;;;;;6.73;3.67;;;13.80;55.30;;;;;;4428558;28;656780;-68
2021/04/27 09:14:19;;;;;;;12.10;3.87;;;13.70;53.30;;;;;;4429333;28;656855;-68
2021/04/27 09:17:07;;;;;;;8.77;4.13;;;14.00;52.30;;;;;;4450328;28;657969;-69
2021/04/27 09:19:54;;;;;;;9.60;4.30;;;14.30;53.50;;;;;;4423478;28;657305;-70
2021/04/27 09:22:41;;;;;;;7.37;4.30;;;14.50;52.10;;;;;;4452938;28;656171;-70
2021/04/27 09:25:29;;;;;;;8.17;4.43;;;14.50;50.70;;;;;;4426204;28;656868;-69
2021/04/27 09:28:31;;;;;;;8.10;4.50;;;14.60;50.70;;;;;;4447941;28;657037;-69
2021/04/27 09:31:23;;;;;;;8.03;4.37;;;14.60;52.70;;;;;;4429092;28;656767;-68
2021/04/27 09:34:21;;;;;;;10.50;4.60;;;14.10;53.00;;;;;;4419384;28;657393;-70
2021/04/27 09:37:19;;;;;;;10.63;5.50;;;13.90;54.10;;;;;;4404873;28;658066;-69
2021/04/27 09:40:18;;;;;;;7.27;4.50;;;13.80;51.80;;;;;;4400832;28;657811;-68
2021/04/27 09:43:12;;;;;;;10.13;3.93;;;13.50;51.60;;;;;;4420071;28;656926;-69
2021/04/27 09:46:00;;;;;;;11.33;4.10;;;13.50;50.40;;;;;;4399940;28;659087;-69
2021/04/27 09:49:11;;;;;;;6.73;4.10;;;13.20;51.40;;;;;;4451381;28;657683;-70
2021/04/27 09:51:59;;;;;;;6.93;3.93;;;13.10;51.50;;;;;;4400973;28;657790;-69
2021/04/27 09:54:59;;;;;;;7.00;4.10;;;13.50;52.00;;;;;;4447723;28;656198;-69
2021/04/27 09:57:48;;;;;;;7.57;4.27;;;13.40;50.40;;;;;;4422204;28;656645;-69
2021/04/27 10:00:36;;;;;;;6.07;3.73;;;13.50;53.70;;;;;;4420117;28;656744;-69
2021/04/27 10:03:23;;;;;;;6.30;3.57;;;13.50;50.20;;;;;;4427957;28;656635;-69
2021/04/27 10:06:11;;;;;;;5.67;3.30;;;13.80;49.80;;;;;;4450237;28;656487;-69
2021/04/27 10:08:58;;;;;;;6.27;3.70;;;14.20;49.60;;;;;;4432224;28;656411;-69
2021/04/27 10:11:45;;;;;;;5.93;3.40;;;14.20;48.00;;;;;;4450351;28;656879;-70
2021/04/27 10:14:32;;;;;;;10.73;3.93;;;14.30;48.40;;;;;;4441516;28;656583;-69
2021/04/27 10:17:23;;;;;;;9.30;4.57;;;14.00;48.30;;;;;;4443763;28;657769;-70
2021/04/27 10:20:12;;;;;;;5.97;3.33;;;14.20;48.40;;;;;;4402560;28;657709;-69
2021/04/27 10:23:00;;;;;;;8.63;4.23;;;14.30;48.50;;;;;;4421307;28;657503;-69
2021/04/27 10:25:47;;;;;;;8.43;4.43;;;14.20;48.50;;;;;;4429169;28;656416;-68
2021/04/27 10:28:56;;;;;;;7.87;3.63;;;14.20;47.40;;;;;;4452883;28;657590;-69
2021/04/27 10:31:43;;;;;;;9.07;4.03;;;14.20;47.60;;;;;;4414599;28;657636;-69
2021/04/27 10:34:30;;;;;;;7.50;4.13;;;14.00;47.30;;;;;;4443723;28;657186;-69
2021/04/27 10:37:17;;;;;;;12.07;4.27;;;14.10;49.90;;;;;;4446800;28;656507;-69
2021/04/27 10:40:06;;;;;;;5.67;3.30;;;14.40;48.20;;;;;;4447954;28;657343;-70
2021/04/27 10:42:53;;;;;;;6.80;4.07;;;14.90;48.00;;;;;;4426553;28;656882;-69
2021/04/27 10:45:40;;;;;;;7.60;3.90;;;15.20;47.50;;;;;;4446188;28;656861;-70
2021/04/27 10:48:27;;;;;;;8.63;4.20;;;14.70;47.00;;;;;;4420786;28;656423;-69
2021/04/27 10:51:34;;;;;;;7.77;3.83;;;14.40;47.60;;;;;;4454629;28;657550;-70
2021/04/27 10:54:22;;;;;;;18.83;4.10;;;14.20;46.90;;;;;;4422828;28;657642;-69
2021/04/27 10:57:15;;;;;;;8.03;4.40;;;14.20;47.30;;;;;;4423105;28;658029;-69
2021/04/27 11:00:03;;;;;;;9.47;4.20;;;14.70;47.80;;;;;;4412024;28;657025;-69
2021/04/27 11:03:15;;;;;;;7.40;4.00;;;15.00;47.10;;;;;;4448981;28;656994;-69
2021/04/27 11:06:06;;;;;;;6.77;4.13;;;14.90;49.70;;;;;;4421022;28;656673;-69
2021/04/27 11:08:54;;;;;;;6.13;4.20;;;14.70;48.30;;;;;;4423999;28;657120;-71
2021/04/27 11:11:41;;;;;;;5.57;3.97;;;15.10;48.80;;;;;;4446665;28;656489;-69
2021/04/27 11:14:29;;;;;;;7.67;3.70;;;15.70;51.20;;;;;;4425327;28;656264;-69
2021/04/27 11:17:27;;;;;;;6.93;4.07;;;15.90;45.30;;;;;;4446997;28;657161;-69
2021/04/27 11:20:14;;;;;;;9.87;3.90;;;16.10;46.80;;;;;;4386836;28;657737;-69
2021/04/27 11:23:01;;;;;;;9.43;4.00;;;16.00;45.70;;;;;;4446360;28;656294;-69
2021/04/27 11:25:48;;;;;;;7.77;4.60;;;15.90;44.20;;;;;;4427917;28;656711;-69
2021/04/27 11:28:55;;;;;;;9.30;4.30;;;15.80;47.50;;;;;;4448680;28;657968;-69
2021/04/27 11:32:03;;;;;;;6.77;3.90;;;15.90;45.40;;;;;;4448437;28;656791;-69
2021/04/27 11:35:02;;;;;;;8.80;4.10;;;16.30;43.70;;;;;;4420013;28;657221;-70
2021/04/27 11:37:49;;;;;;;10.00;4.00;;;15.60;45.50;;;;;;4405084;28;657091;-69
2021/04/27 11:40:37;;;;;;;10.10;4.10;;;15.60;46.80;;;;;;4447992;28;657799;-69
2021/04/27 11:43:24;;;;;;;7.70;3.93;;;15.70;45.30;;;;;;4419169;28;658388;-69
2021/04/27 11:46:11;;;;;;;11.60;4.33;;;15.20;42.60;;;;;;4448712;28;656448;-69
2021/04/27 11:48:59;;;;;;;7.50;4.50;;;14.70;43.90;;;;;;4425750;28;657620;-68
2021/04/27 11:51:46;;;;;;;9.23;4.00;;;14.80;46.20;;;;;;4448441;28;657052;-69
2021/04/27 11:54:34;;;;;;;10.17;4.70;;;14.70;45.80;;;;;;4423518;28;656882;-69
2021/04/27 11:57:24;;;;;;;8.53;4.33;;;14.80;46.50;;;;;;4444795;28;657687;-68
2021/04/27 12:00:12;;;;;;;11.50;4.40;;;14.90;43.80;;;;;;4428482;28;657225;-69
2021/04/27 12:03:00;;;;;;;10.93;5.10;;;14.40;48.50;;;;;;4403285;28;707577;-69
2021/04/27 12:05:49;;;;;;;7.87;4.27;;;14.50;47.20;;;;;;4428025;28;657838;-68
2021/04/27 12:08:37;;;;;;;10.20;4.90;;;15.00;45.30;;;;;;4448065;28;657170;-70
2021/04/27 12:11:25;;;;;;;8.63;4.57;;;15.00;44.10;;;;;;4428291;28;658396;-69
2021/04/27 12:14:13;;;;;;;9.10;4.73;;;15.10;45.40;;;;;;4441004;28;656781;-69
2021/04/27 12:17:00;;;;;;;12.67;4.27;;;15.40;47.70;;;;;;4450483;28;657151;-69
2021/04/27 12:19:47;;;;;;;9.03;4.50;;;15.40;43.50;;;;;;4443479;28;657645;-69
2021/04/27 12:22:39;;;;;;;9.17;4.60;;;15.10;43.80;;;;;;4443524;28;655875;-69
2021/04/27 12:25:28;;;;;;;8.57;4.67;;;15.00;43.40;;;;;;4425949;28;656862;-69
2021/04/27 12:28:14;;;;;;;8.40;4.70;;;15.10;44.30;;;;;;4421113;28;657814;-69
2021/04/27 12:31:01;;;;;;;9.27;5.23;;;14.80;45.30;;;;;;4448397;28;656103;-69
2021/04/27 12:33:55;;;;;;;9.70;5.30;;;14.80;42.80;;;;;;4427205;28;656354;-68
2021/04/27 12:36:43;;;;;;;10.67;5.10;;;14.30;43.20;;;;;;4399176;28;657556;-68
2021/04/27 12:39:35;;;;;;;11.43;5.17;;;14.70;43.90;;;;;;4441678;28;658073;-69
2021/04/27 12:42:23;;;;;;;9.33;4.97;;;14.70;45.00;;;;;;4401709;28;657753;-69
2021/04/27 12:45:11;;;;;;;10.20;5.03;;;14.90;44.90;;;;;;4450903;28;656852;-69
2021/04/27 12:48:01;;;;;;;7.97;4.87;;;15.50;44.20;;;;;;4428265;28;658383;-68
2021/04/27 12:50:50;;;;;;;12.67;5.60;;;16.00;43.40;;;;;;4429117;28;657168;-69
2021/04/27 12:53:40;;;;;;;16.10;8.17;;;16.20;45.10;;;;;;4424279;28;657653;-68
2021/04/27 12:56:28;;;;;;;11.13;5.53;;;16.70;44.50;;;;;;4428194;28;657443;-68
2021/04/27 12:59:17;;;;;;;9.57;4.93;;;16.10;42.00;;;;;;4447754;28;657804;-70
2021/04/27 13:02:11;;;;;;;11.18;5.43;;;16.10;43.10;;;;;;4426793;28;656882;-69
2021/04/27 13:04:59;;;;;;;6.97;4.10;;;16.30;42.10;;;;;;4384947;28;658847;-70
2021/04/27 13:07:46;;;;;;;8.97;4.87;;;16.40;42.00;;;;;;4447906;28;657073;-69
2021/04/27 13:10:37;;;;;;;8.20;4.83;;;16.10;44.50;;;;;;4429282;28;656830;-69
2021/04/27 13:13:25;;;;;;;9.25;4.80;;;16.00;43.00;;;;;;4429155;28;656751;-69
2021/04/27 13:16:14;;;;;;;7.60;4.57;;;16.00;42.10;;;;;;4414197;28;656354;-68
2021/04/27 13:19:03;;;;;;;8.77;5.00;;;16.00;41.80;;;;;;4447879;28;657022;-69
2021/04/27 13:22:12;;;;;;;16.03;7.57;;;16.10;42.60;;;;;;4423670;28;656998;-68
2021/04/27 13:25:12;;;;;;;9.53;5.20;;;16.30;42.10;;;;;;4400232;28;657737;-68
2021/04/27 13:28:01;;;;;;;12.63;4.90;;;16.10;40.20;;;;;;4386195;28;657411;-69
2021/04/27 13:30:50;;;;;;;10.13;5.20;;;16.30;40.80;;;;;;4410817;28;658016;-68
2021/04/27 13:33:39;;;;;;;9.10;4.83;;;16.20;41.00;;;;;;4410123;28;657520;-68
2021/04/27 13:36:26;;;;;;;15.33;5.20;;;16.30;43.30;;;;;;4430368;28;656995;-70
2021/04/27 13:39:13;;;;;;;10.10;5.87;;;16.40;42.30;;;;;;4410088;28;658403;-68
2021/04/27 13:41:59;;;;;;;8.30;5.00;;;16.70;40.70;;;;;;4428314;28;659193;-69
2021/04/27 13:44:47;;;;;;;6.97;4.67;;;16.80;39.50;;;;;;4436118;28;656635;-69
2021/04/27 13:47:35;;;;;;;9.53;4.57;;;16.50;39.60;;;;;;4412527;28;657689;-69
2021/04/27 13:50:22;;;;;;;8.70;4.43;;;16.60;39.30;;;;;;4434177;28;656467;-68
2021/04/27 13:53:09;;;;;;;9.33;4.27;;;16.80;39.10;;;;;;4446335;28;656530;-68
2021/04/27 13:55:57;;;;;;;8.60;4.60;;;17.10;39.70;;;;;;4448222;28;656874;-68
2021/04/27 13:58:44;;;;;;;9.60;4.83;;;17.10;38.00;;;;;;4420867;28;658226;-68
2021/04/27 14:01:32;;;;;;;10.90;4.50;;;17.10;37.40;;;;;;4447497;28;656683;-69
2021/04/27 14:04:20;;;;;;;7.90;4.60;;;17.20;38.80;;;;;;4406282;28;657797;-69
2021/04/27 14:07:07;;;;;;;7.33;4.30;;;17.30;37.80;;;;;;4432289;28;657021;-68
2021/04/27 14:09:54;;;;;;;15.47;4.97;;;17.30;36.90;;;;;;4406238;28;656866;-68
2021/04/27 14:12:41;;;;;;;9.90;4.67;;;17.50;39.90;;;;;;4432765;28;659323;-69
2021/04/27 14:15:29;;;;;;;18.57;7.87;;;17.90;38.30;;;;;;4415898;28;656460;-68
2021/04/27 14:18:16;;;;;;;10.20;5.13;;;18.30;39.30;;;;;;4435438;28;658092;-68
2021/04/27 14:21:04;;;;;;;8.77;4.63;;;18.60;38.50;;;;;;4397860;28;657689;-68
2021/04/27 14:23:51;;;;;;;11.00;4.93;;;18.30;38.80;;;;;;4430916;28;657060;-68
2021/04/27 14:26:38;;;;;;;8.70;4.60;;;18.20;38.10;;;;;;4414157;28;658245;-68
2021/04/27 14:29:25;;;;;;;12.83;5.00;;;18.20;36.80;;;;;;4441731;28;657931;-68